createdAt,value
2018-06-17T00:00:08.584Z,43.35
2018-06-17T00:02:37.609Z,45.63
2018-06-17T00:05:06.807Z,45.70
2018-06-17T00:07:35.812Z,46.00
2018-06-17T00:10:05.601Z,47.25
2018-06-17T00:12:34.712Z,44.20
2018-06-17T00:15:03.817Z,45.45
2018-06-17T00:17:32.897Z,48.45
2018-06-17T00:20:01.969Z,46.55
2018-06-17T00:22:30.978Z,45.90
2018-06-17T00:25:00.022Z,48.92
2018-06-17T00:27:29.120Z,48.10
2018-06-17T00:29:58.230Z,49.13
2018-06-17T00:32:27.320Z,45.03
2018-06-17T00:34:56.401Z,47.03
2018-06-17T00:37:25.152Z,46.28
2018-06-17T00:39:54.273Z,44.20
2018-06-17T00:42:23.428Z,49.42
2018-06-17T00:44:52.482Z,47.15
2018-06-17T00:47:21.564Z,43.35
2018-06-17T00:49:50.624Z,44.98
2018-06-17T00:52:19.628Z,45.90
2018-06-17T00:54:48.675Z,46.50
2018-06-17T00:57:28.858Z,46.00
2018-06-17T00:59:57.907Z,44.23
2018-06-17T01:02:26.929Z,45.78
2018-06-17T01:04:55.972Z,46.35
2018-06-17T01:07:24.976Z,44.18
2018-06-17T01:09:54.029Z,46.40
2018-06-17T01:12:23.074Z,48.52
2018-06-17T01:14:52.124Z,47.80
2018-06-17T01:17:21.154Z,46.10
2018-06-17T01:19:50.220Z,46.80
2018-06-17T01:22:19.238Z,47.08
2018-06-17T01:24:48.377Z,47.53
2018-06-17T01:27:17.525Z,48.73
2018-06-17T01:29:46.689Z,49.60
2018-06-17T01:32:15.752Z,49.73
2018-06-17T01:34:44.768Z,48.17
2018-06-17T01:37:13.815Z,48.65
2018-06-17T01:39:42.866Z,50.65
2018-06-17T01:42:11.911Z,48.42
2018-06-17T01:44:40.955Z,53.00
2018-06-17T01:47:10.006Z,48.48
2018-06-17T01:49:39.072Z,50.48
2018-06-17T01:52:08.109Z,51.35
2018-06-17T01:54:37.159Z,54.05
2018-06-17T01:57:06.179Z,53.28
2018-06-17T01:59:35.252Z,53.70
2018-06-17T02:02:04.312Z,53.25
2018-06-17T02:04:38.656Z,53.15
2018-06-17T02:07:12.968Z,54.80
2018-06-17T02:09:47.434Z,56.28
2018-06-17T02:12:17.273Z,60.50
2018-06-17T02:14:51.917Z,59.38
2018-06-17T02:17:22.588Z,63.70
2018-06-17T02:19:52.058Z,66.35
2018-06-17T02:22:21.000Z,58.92
2018-06-17T02:24:50.081Z,54.27
2018-06-17T02:27:19.415Z,54.58
2018-06-17T02:29:48.427Z,54.23
2018-06-17T02:32:17.476Z,55.45
2018-06-17T02:34:46.239Z,54.83
2018-06-17T02:37:14.879Z,55.28
2018-06-17T02:39:43.841Z,59.53
2018-06-17T02:42:12.872Z,55.60
2018-06-17T02:44:41.903Z,55.92
2018-06-17T02:47:16.231Z,57.20
2018-06-17T02:49:47.975Z,57.78
2018-06-17T02:52:22.372Z,55.00
2018-06-17T02:54:51.419Z,57.30
2018-06-17T02:57:20.932Z,57.30
2018-06-17T02:59:49.984Z,59.75
2018-06-17T03:02:18.999Z,57.98
2018-06-17T03:04:48.040Z,62.85
2018-06-17T03:07:17.064Z,57.62
2018-06-17T03:09:46.134Z,59.20
2018-06-17T03:12:15.183Z,58.28
2018-06-17T03:14:43.927Z,56.00
2018-06-17T03:17:12.893Z,57.83
2018-06-17T03:19:41.905Z,54.42
2018-06-17T03:22:10.953Z,58.65
2018-06-17T03:25:43.443Z,52.30
2018-06-17T03:28:17.827Z,54.70
2018-06-17T03:30:52.147Z,58.28
2018-06-17T03:33:26.459Z,54.77
2018-06-17T03:36:00.725Z,52.93
2018-06-17T03:38:29.739Z,52.33
2018-06-17T03:40:58.804Z,53.50
2018-06-17T03:43:27.819Z,51.25
2018-06-17T03:45:56.861Z,51.35
2018-06-17T03:48:25.913Z,56.75
2018-06-17T03:50:55.037Z,56.23
2018-06-17T03:53:24.099Z,55.85
2018-06-17T03:55:53.167Z,57.43
2018-06-17T03:58:21.935Z,55.33
2018-06-17T04:00:50.598Z,56.65
2018-06-17T04:03:19.537Z,58.55
2018-06-17T04:05:48.300Z,56.35
2018-06-17T04:08:16.934Z,57.50
2018-06-17T04:10:46.124Z,53.80
2018-06-17T04:13:15.229Z,54.80
2018-06-17T04:15:44.289Z,55.40
2018-06-17T04:18:13.321Z,54.90
2018-06-17T04:20:42.408Z,58.85
2018-06-17T04:23:11.421Z,57.43
2018-06-17T04:25:40.549Z,58.70
2018-06-17T04:28:09.537Z,59.18
2018-06-17T04:30:38.598Z,58.10
2018-06-17T04:33:07.667Z,56.45
2018-06-17T04:35:36.747Z,55.45
2018-06-17T04:38:05.929Z,57.45
2018-06-17T04:40:35.027Z,54.48
2018-06-17T04:43:04.078Z,55.50
2018-06-17T04:45:33.164Z,56.53
2018-06-17T04:48:02.260Z,53.87
2018-06-17T04:50:31.349Z,57.08
2018-06-17T04:53:00.428Z,54.60
2018-06-17T04:55:29.487Z,54.42
2018-06-17T04:57:58.638Z,54.45
2018-06-17T05:00:27.675Z,54.65
2018-06-17T05:02:56.696Z,54.00
2018-06-17T05:05:25.747Z,52.25
2018-06-17T05:07:54.936Z,56.60
2018-06-17T05:10:24.034Z,55.63
2018-06-17T05:12:53.050Z,54.33
2018-06-17T05:15:22.091Z,55.88
2018-06-17T05:17:51.139Z,53.55
2018-06-17T05:20:20.154Z,54.93
2018-06-17T05:22:48.898Z,52.98
2018-06-17T05:25:17.873Z,57.70
2018-06-17T05:27:46.889Z,55.38
2018-06-17T05:30:15.944Z,52.78
2018-06-17T05:32:44.992Z,54.58
2018-06-17T05:35:14.057Z,56.58
2018-06-17T05:37:43.111Z,59.58
2018-06-17T05:40:11.893Z,58.78
2018-06-17T05:42:40.816Z,54.77
2018-06-17T05:45:09.872Z,58.45
2018-06-17T05:47:38.966Z,57.00
2018-06-17T05:50:08.018Z,54.20
2018-06-17T05:52:37.112Z,58.87
2018-06-17T05:55:06.136Z,55.40
2018-06-17T05:57:35.192Z,59.18
2018-06-17T06:00:04.420Z,55.55
2018-06-17T06:02:33.517Z,54.95
2018-06-17T06:05:02.759Z,57.78
2018-06-17T06:07:31.811Z,57.05
2018-06-17T06:10:00.946Z,61.13
2018-06-17T06:12:29.719Z,58.60
2018-06-17T06:14:58.864Z,56.70
2018-06-17T06:17:27.897Z,60.17
2018-06-17T06:19:56.949Z,63.25
2018-06-17T06:22:26.010Z,56.40
2018-06-17T06:24:55.085Z,58.68
2018-06-17T06:27:24.182Z,57.05
2018-06-17T06:29:53.275Z,59.83
2018-06-17T06:32:22.462Z,58.48
2018-06-17T06:34:51.560Z,59.42
2018-06-17T06:37:20.655Z,62.27
2018-06-17T06:39:49.696Z,64.27
2018-06-17T06:42:18.796Z,64.45
2018-06-17T06:44:47.876Z,65.97
2018-06-17T06:47:17.011Z,80.77
2018-06-17T06:49:46.098Z,65.12
2018-06-17T06:52:15.264Z,63.95
2018-06-17T06:54:44.424Z,72.00
2018-06-17T06:57:13.864Z,81.28
2018-06-17T06:59:42.920Z,80.62
2018-06-17T07:02:23.277Z,80.70
2018-06-17T07:05:03.569Z,82.62
2018-06-17T07:07:44.099Z,89.03
2018-06-17T07:10:23.359Z,116.73
2018-06-17T07:12:53.334Z,122.20
2018-06-17T07:15:34.795Z,125.00
2018-06-17T07:18:15.887Z,132.57
2018-06-17T07:20:48.032Z,145.23
2018-06-17T07:23:18.561Z,107.60
2018-06-17T07:26:58.305Z,136.33
2018-06-17T07:29:40.803Z,86.20
2018-06-17T07:32:10.542Z,116.03
2018-06-17T07:34:39.691Z,86.43
2018-06-17T07:37:08.859Z,121.03
2018-06-17T07:41:45.888Z,115.47
2018-06-17T07:44:17.389Z,74.87
2018-06-17T07:46:46.362Z,107.67
2018-06-17T07:49:29.820Z,96.60
2018-06-17T07:52:11.694Z,121.53
2018-06-17T07:54:41.699Z,72.13
2018-06-17T07:57:13.221Z,69.03
2018-06-17T07:59:43.708Z,79.93
2018-06-17T08:02:13.332Z,72.63
2018-06-17T08:04:42.500Z,71.57
2018-06-17T08:07:11.783Z,68.03
2018-06-17T08:09:40.852Z,69.13
2018-06-17T08:12:10.790Z,67.73
2018-06-17T08:14:40.389Z,67.70
2018-06-17T08:17:09.517Z,62.17
2018-06-17T08:19:38.801Z,64.70
2018-06-17T08:22:08.077Z,61.07
2018-06-17T08:24:37.764Z,61.10
2018-06-17T08:27:07.016Z,56.43
2018-06-17T08:29:36.233Z,55.03
2018-06-17T08:32:05.639Z,52.07
2018-06-17T08:34:35.165Z,52.63
2018-06-17T08:37:04.519Z,53.30
2018-06-17T08:39:33.943Z,54.00
2018-06-17T08:42:03.181Z,68.63
2018-06-17T08:44:32.253Z,53.23
2018-06-17T08:47:01.304Z,56.70
2018-06-17T08:49:30.419Z,59.63
2018-06-17T08:51:59.548Z,58.83
2018-06-17T08:54:28.583Z,69.20
2018-06-17T08:56:57.445Z,59.60
2018-06-17T08:59:26.386Z,69.10
2018-06-17T09:01:55.452Z,58.33
2018-06-17T09:04:24.562Z,57.30
2018-06-17T09:06:53.642Z,55.87
2018-06-17T09:09:22.658Z,58.70
2018-06-17T09:11:57.939Z,60.73
2018-06-17T09:14:27.217Z,63.57
2018-06-17T09:16:56.340Z,64.33
2018-06-17T09:19:25.915Z,58.50
2018-06-17T09:21:54.681Z,66.17
2018-06-17T09:24:24.195Z,63.70
2018-06-17T09:27:17.595Z,64.10
2018-06-17T09:29:46.957Z,68.60
2018-06-17T09:32:18.166Z,65.17
2018-06-17T09:34:47.231Z,64.07
2018-06-17T09:37:16.275Z,67.27
2018-06-17T09:39:45.344Z,66.50
2018-06-17T09:42:14.557Z,67.03
2018-06-17T09:44:43.671Z,69.93
2018-06-17T09:47:12.829Z,66.87
2018-06-17T09:49:41.985Z,66.80
2018-06-17T09:52:11.281Z,66.87
2018-06-17T09:54:40.351Z,68.27
2018-06-17T09:57:09.375Z,68.00
2018-06-17T09:59:38.469Z,62.53
2018-06-17T10:02:07.560Z,61.27
2018-06-17T10:04:36.664Z,56.40
2018-06-17T10:07:05.764Z,53.70
2018-06-17T10:09:44.511Z,54.27
2018-06-17T10:12:13.669Z,49.30
2018-06-17T10:14:42.737Z,47.17
2018-06-17T10:17:11.864Z,46.57
2018-06-17T10:19:40.935Z,45.90
2018-06-17T10:22:10.053Z,44.97
2018-06-17T10:24:39.060Z,43.67
2018-06-17T10:27:08.129Z,43.70
2018-06-17T10:29:37.238Z,44.50
2018-06-17T10:32:06.274Z,45.90
2018-06-17T10:34:35.336Z,43.90
2018-06-17T10:37:04.463Z,45.70
2018-06-17T10:39:33.497Z,47.00
2018-06-17T10:42:02.532Z,42.83
2018-06-17T10:44:31.544Z,41.80
2018-06-17T10:47:00.660Z,82.40
2018-06-17T10:49:29.697Z,48.43
2018-06-17T10:51:58.791Z,38.77
2018-06-17T10:54:27.840Z,39.13
2018-06-17T10:56:56.887Z,41.60
2018-06-17T10:59:25.912Z,38.63
2018-06-17T11:01:54.960Z,41.87
2018-06-17T11:04:24.047Z,42.00
2018-06-17T11:06:53.160Z,43.37
2018-06-17T11:09:22.197Z,43.67
2018-06-17T11:11:51.331Z,41.83
2018-06-17T11:14:20.548Z,37.93
2018-06-17T11:16:49.604Z,41.57
2018-06-17T11:19:18.737Z,40.67
2018-06-17T11:21:47.828Z,42.70
2018-06-17T11:24:16.883Z,41.10
2018-06-17T11:26:45.997Z,39.90
2018-06-17T11:29:15.143Z,44.20
2018-06-17T11:31:44.181Z,41.83
2018-06-17T11:34:13.229Z,44.30
2018-06-17T11:36:42.606Z,43.50
2018-06-17T11:39:11.750Z,43.50
2018-06-17T11:41:40.702Z,43.47
2018-06-17T11:44:09.803Z,46.50
2018-06-17T11:46:38.924Z,45.07
2018-06-17T11:49:08.026Z,46.40
2018-06-17T11:51:37.065Z,45.50
2018-06-17T11:54:06.343Z,43.97
2018-06-17T11:56:35.471Z,45.67
2018-06-17T11:59:04.650Z,46.10
2018-06-17T12:01:33.756Z,44.57
2018-06-17T12:04:02.809Z,44.50
2018-06-17T12:06:31.863Z,44.67
2018-06-17T12:09:00.917Z,47.10
2018-06-17T12:11:29.930Z,43.60
2018-06-17T12:13:59.129Z,42.50
2018-06-17T12:16:28.207Z,43.27
2018-06-17T12:18:57.339Z,43.93
2018-06-17T12:21:26.519Z,43.97
2018-06-17T12:23:55.712Z,40.47
2018-06-17T12:26:24.776Z,44.70
2018-06-17T12:28:53.908Z,44.37
2018-06-17T12:31:23.150Z,44.00
2018-06-17T12:33:53.188Z,44.60
2018-06-17T12:36:22.255Z,40.07
2018-06-17T12:38:51.353Z,40.00
2018-06-17T12:41:20.391Z,39.80
2018-06-17T12:43:49.513Z,43.13
2018-06-17T12:46:18.617Z,39.33
2018-06-17T12:48:47.663Z,43.07
2018-06-17T12:51:16.829Z,42.50
2018-06-17T12:53:45.933Z,39.37
2018-06-17T12:56:15.172Z,41.60
2018-06-17T12:58:44.378Z,39.37
2018-06-17T13:01:13.476Z,36.00
2018-06-17T13:03:42.553Z,37.10
2018-06-17T13:06:11.652Z,39.97
2018-06-17T13:08:40.731Z,39.50
2018-06-17T13:11:09.875Z,36.43
2018-06-17T13:13:38.936Z,40.77
2018-06-17T13:16:07.968Z,37.93
2018-06-17T13:18:37.011Z,36.17
2018-06-17T13:21:06.119Z,34.60
2018-06-17T13:23:35.160Z,35.70
2018-06-17T13:26:04.232Z,36.27
2018-06-17T13:28:33.269Z,33.50
2018-06-17T13:31:02.471Z,38.30
2018-06-17T13:33:31.481Z,34.47
2018-06-17T13:36:00.548Z,35.40
2018-06-17T13:38:29.635Z,32.40
2018-06-17T13:40:58.695Z,33.27
2018-06-17T13:43:27.457Z,32.17
2018-06-17T13:45:56.381Z,32.37
2018-06-17T13:48:25.135Z,32.67
2018-06-17T13:50:54.081Z,32.37
2018-06-17T13:53:23.130Z,34.70
2018-06-17T13:55:52.196Z,35.53
2018-06-17T13:58:21.223Z,32.67
2018-06-17T14:00:50.271Z,33.37
2018-06-17T14:03:19.296Z,36.83
2018-06-17T14:05:48.380Z,40.87
2018-06-17T14:08:17.394Z,33.37
2018-06-17T14:10:46.456Z,34.30
2018-06-17T14:13:15.491Z,33.50
2018-06-17T14:15:44.607Z,34.30
2018-06-17T14:18:13.334Z,32.47
2018-06-17T14:20:42.327Z,36.17
2018-06-17T14:23:11.376Z,32.20
2018-06-17T14:25:40.516Z,32.77
2018-06-17T14:28:09.536Z,34.80
2018-06-17T14:30:38.593Z,31.67
2018-06-17T14:33:07.665Z,33.90
2018-06-17T14:35:36.698Z,32.00
2018-06-17T14:38:05.893Z,32.77
2018-06-17T14:40:40.561Z,32.10
2018-06-17T14:43:14.990Z,31.77
2018-06-17T14:45:49.309Z,31.77
2018-06-17T14:48:23.735Z,31.93
2018-06-17T14:50:58.056Z,34.50
2018-06-17T14:53:27.271Z,31.47
2018-06-17T14:55:56.481Z,34.30
2018-06-17T14:58:25.639Z,35.07
2018-06-17T15:00:54.764Z,35.20
2018-06-17T15:03:23.787Z,32.20
2018-06-17T15:05:52.888Z,56.00
2018-06-17T15:08:21.962Z,33.13
2018-06-17T15:10:51.067Z,31.63
2018-06-17T15:13:20.088Z,34.30
2018-06-17T15:15:49.185Z,33.57
2018-06-17T15:18:18.389Z,36.07
2018-06-17T15:20:47.504Z,33.10
2018-06-17T15:23:16.536Z,32.27
2018-06-17T15:25:45.587Z,35.03
2018-06-17T15:28:14.607Z,33.60
2018-06-17T15:30:43.947Z,33.53
2018-06-17T15:33:18.415Z,33.70
2018-06-17T15:35:52.690Z,33.57
2018-06-17T15:38:27.153Z,32.20
2018-06-17T15:41:01.260Z,35.40
2018-06-17T15:43:30.286Z,33.90
2018-06-17T15:45:59.454Z,34.90
2018-06-17T15:48:28.512Z,32.80
2018-06-17T15:50:57.613Z,31.80
2018-06-17T15:53:26.692Z,35.53
2018-06-17T15:55:55.817Z,33.60
2018-06-17T15:58:24.899Z,34.13
2018-06-17T16:00:54.803Z,34.10
2018-06-17T16:03:23.847Z,32.67
2018-06-17T16:05:52.985Z,33.87
2018-06-17T16:08:22.075Z,33.40
2018-06-17T16:10:51.103Z,33.70
2018-06-17T16:13:25.534Z,31.27
2018-06-17T16:15:59.983Z,33.07
2018-06-17T16:18:34.435Z,32.67
2018-06-17T16:21:06.148Z,34.27
2018-06-17T16:23:35.947Z,31.77
2018-06-17T16:26:05.211Z,34.03
2018-06-17T16:28:34.364Z,36.67
2018-06-17T16:31:03.485Z,34.90
2018-06-17T16:33:32.838Z,37.67
2018-06-17T16:36:01.912Z,35.77
2018-06-17T16:38:30.971Z,35.90
2018-06-17T16:41:00.048Z,35.77
2018-06-17T16:43:29.139Z,37.30
2018-06-17T16:45:58.191Z,39.27
2018-06-17T16:48:27.240Z,40.17
2018-06-17T16:51:01.711Z,45.20
2018-06-17T16:53:36.059Z,41.53
2018-06-17T16:56:10.351Z,45.77
2018-06-17T16:58:44.605Z,45.37
2018-06-17T17:01:13.676Z,49.27
2018-06-17T17:03:42.736Z,49.23
2018-06-17T17:06:11.844Z,50.20
2018-06-17T17:08:40.943Z,50.87
2018-06-17T17:11:10.096Z,55.30
2018-06-17T17:13:39.195Z,55.87
2018-06-17T17:16:08.361Z,53.93
2018-06-17T17:18:37.408Z,55.87
2018-06-17T17:21:06.544Z,60.67
2018-06-17T17:23:35.585Z,58.63
2018-06-17T17:26:04.667Z,58.03
2018-06-17T17:28:33.802Z,59.87
2018-06-17T17:31:02.868Z,63.77
2018-06-17T17:33:37.350Z,63.47
2018-06-17T17:36:11.846Z,56.37
2018-06-17T17:38:46.206Z,58.67
2018-06-17T17:41:15.357Z,58.00
2018-06-17T17:43:44.376Z,56.33
2018-06-17T17:46:18.672Z,57.80
2018-06-17T17:48:47.792Z,55.83
2018-06-17T17:51:16.920Z,54.20
2018-06-17T17:53:46.015Z,52.87
2018-06-17T17:56:15.121Z,52.70
2018-06-17T17:58:44.390Z,54.40
2018-06-17T18:01:13.534Z,53.90
2018-06-17T18:03:42.670Z,55.53
2018-06-17T18:06:11.700Z,50.57
2018-06-17T18:08:40.939Z,48.37
2018-06-17T18:11:10.068Z,46.57
2018-06-17T18:13:38.915Z,48.70
2018-06-17T18:16:07.930Z,50.20
2018-06-17T18:18:38.174Z,49.83
2018-06-17T18:21:07.954Z,50.47
2018-06-17T18:23:37.097Z,47.27
2018-06-17T18:26:11.497Z,48.17
2018-06-17T18:28:45.998Z,47.95
2018-06-17T18:31:15.029Z,44.15
2018-06-17T18:33:49.557Z,43.70
2018-06-17T18:36:18.810Z,44.63
2018-06-17T18:38:48.322Z,42.95
2018-06-17T18:41:17.486Z,43.92
2018-06-17T18:43:46.614Z,44.38
2018-06-17T18:46:15.776Z,45.58
2018-06-17T18:48:44.920Z,42.88
2018-06-17T18:51:13.951Z,42.60
2018-06-17T18:53:43.108Z,41.30
2018-06-17T18:56:12.313Z,41.92
2018-06-17T18:58:41.700Z,41.53
2018-06-17T19:01:10.887Z,41.68
2018-06-17T19:03:40.135Z,40.67
2018-06-17T19:06:08.948Z,40.35
2018-06-17T19:08:43.299Z,40.45
2018-06-17T19:11:17.593Z,41.73
2018-06-17T19:13:51.980Z,39.90
2018-06-17T19:16:26.888Z,43.48
2018-06-17T19:18:56.781Z,41.30
2018-06-17T19:21:25.972Z,42.73
2018-06-17T19:23:55.473Z,44.88
2018-06-17T19:26:24.579Z,40.50
2018-06-17T19:28:53.599Z,41.18
2018-06-17T19:31:22.700Z,46.83
2018-06-17T19:33:51.812Z,44.88
2018-06-17T19:36:21.040Z,43.23
2018-06-17T19:38:50.232Z,46.10
2018-06-17T19:41:19.511Z,41.68
2018-06-17T19:43:48.584Z,41.83
2018-06-17T19:46:17.852Z,42.83
2018-06-17T19:48:46.870Z,41.33
2018-06-17T19:51:21.138Z,41.65
2018-06-17T19:53:55.367Z,46.58
2018-06-17T19:56:29.558Z,41.00
2018-06-17T20:00:02.197Z,41.83
2018-06-17T20:02:31.278Z,39.60
2018-06-17T20:05:00.354Z,39.88
2018-06-17T20:07:29.436Z,39.42
2018-06-17T20:09:58.527Z,39.27
2018-06-17T20:12:27.648Z,40.55
2018-06-17T20:14:56.804Z,39.48
2018-06-17T20:17:26.050Z,39.88
2018-06-17T20:19:55.236Z,38.25
2018-06-17T20:22:24.266Z,40.05
2018-06-17T20:24:53.379Z,37.50
2018-06-17T20:27:22.444Z,39.00
2018-06-17T20:29:51.539Z,38.45
2018-06-17T20:32:25.736Z,41.08
2018-06-17T20:34:59.955Z,39.78
2018-06-17T20:37:34.238Z,38.15
2018-06-17T20:40:08.714Z,37.48
2018-06-17T20:42:43.145Z,37.95
2018-06-17T20:45:12.204Z,35.25
2018-06-17T20:47:41.235Z,37.25
2018-06-17T20:50:10.378Z,35.17
2018-06-17T20:52:39.447Z,34.90
2018-06-17T20:55:08.572Z,37.40
2018-06-17T20:57:37.714Z,36.00
2018-06-17T21:00:07.348Z,39.25
2018-06-17T21:02:36.411Z,38.88
2018-06-17T21:05:05.859Z,37.83
2018-06-17T21:07:35.063Z,37.70
2018-06-17T21:10:04.634Z,36.30
2018-06-17T21:12:33.712Z,35.33
2018-06-17T21:15:21.385Z,38.60
2018-06-17T21:17:51.330Z,38.10
2018-06-17T21:20:25.666Z,38.28
2018-06-17T21:22:59.819Z,37.67
2018-06-17T21:25:34.118Z,36.75
2018-06-17T21:28:03.177Z,36.77
2018-06-17T21:30:32.207Z,34.33
2018-06-17T21:33:01.212Z,34.25
2018-06-17T21:35:30.336Z,33.75
2018-06-17T21:37:59.395Z,36.73
2018-06-17T21:40:28.450Z,33.65
2018-06-17T21:42:57.488Z,34.35
2018-06-17T21:45:26.549Z,35.15
2018-06-17T21:47:55.596Z,33.65
2018-06-17T21:50:24.684Z,34.45
2018-06-17T21:52:53.696Z,36.20
2018-06-17T21:55:22.795Z,34.10
2018-06-17T21:57:51.917Z,34.13
2018-06-17T22:00:20.977Z,38.45
2018-06-17T22:02:50.074Z,35.20
2018-06-17T22:05:19.200Z,33.98
2018-06-17T22:09:57.916Z,34.55
2018-06-17T22:12:32.252Z,36.03
2018-06-17T22:15:06.728Z,35.50
2018-06-17T22:17:40.684Z,34.45
2018-06-17T22:20:09.668Z,32.88
2018-06-17T22:22:38.696Z,35.35
2018-06-17T22:25:07.752Z,32.95
2018-06-17T22:27:36.759Z,33.65
2018-06-17T22:30:05.848Z,33.63
2018-06-17T22:32:34.921Z,33.00
2018-06-17T22:35:04.052Z,34.27
2018-06-17T22:37:33.103Z,32.90
2018-06-17T22:40:02.112Z,33.90
2018-06-17T22:42:31.160Z,33.38
2018-06-17T22:45:00.180Z,34.35
2018-06-17T22:47:34.485Z,33.83
2018-06-17T22:50:03.153Z,35.50
2018-06-17T22:52:42.135Z,35.75
2018-06-17T22:55:11.136Z,36.05
2018-06-17T22:57:45.461Z,36.13
2018-06-17T23:01:19.159Z,36.60
2018-06-17T23:03:53.348Z,35.23
2018-06-17T23:06:27.687Z,35.33
2018-06-17T23:09:01.974Z,35.52
2018-06-17T23:11:31.019Z,35.60
2018-06-17T23:14:00.051Z,36.48
2018-06-17T23:16:29.150Z,38.30
2018-06-17T23:18:58.165Z,35.73
2018-06-17T23:21:27.196Z,35.80
2018-06-17T23:23:56.196Z,34.27
2018-06-17T23:26:25.228Z,35.73
2018-06-17T23:28:54.271Z,36.93
2018-06-17T23:31:23.292Z,34.38
2018-06-17T23:33:52.318Z,34.08
2018-06-17T23:36:21.348Z,37.13
2018-06-17T23:38:50.347Z,35.17
2018-06-17T23:41:19.409Z,35.28
2018-06-17T23:43:49.131Z,33.42
2018-06-17T23:46:23.573Z,36.00
2018-06-17T23:48:58.028Z,35.68
2018-06-17T23:51:32.370Z,34.67
2018-06-17T23:54:06.608Z,37.10
2018-06-17T23:56:35.685Z,36.40
2018-06-17T23:59:04.715Z,36.70
